Latest Weather Observations for Grafton Airport

IDN60801

Issued at 11:34 pm EDT Friday 27 February 2015 (issued every 30 minutes, with the page automatically refreshed every 10 minutes)

About weather observations | Map of weather stations | Latest weather observations for NSW | Other Formats
Station Details ID: 058161 Name: GRAFTON AIRPORT AWS Lat: -29.76 Lon: 153.03 Height: 25.09 m
Data from the previous 72 hours. | See also: Recent months for locations in New South Wales
Date/Time
EDT
Temp
°C
App
Temp
°C
Dew
Point
Rel
Hum
%
Delta-T
°C
Wind Press
QNH
hPa
Press
MSL
hPa
Rain
since 9 am
mm
Dir
 
Spd
km/h
Gust
km/h
Spd
kts
Gust
kts
27/11:30pm 20.9 23.5 20.4 97 0.3 SW 7 11 4 6 1011.1 1011.0 25.2
27/11:00pm 20.9 22.3 20.4 97 0.3 S 13 15 7 8 1011.0 1010.9 25.2
27/10:30pm 21.2 24.0 20.9 98 0.2 SSW 7 11 4 6 1010.8 1010.7 25.2
27/10:00pm 21.4 24.2 20.9 97 0.3 SSW 7 11 4 6 1010.7 1010.6 25.2
27/09:30pm 21.9 25.4 21.1 95 0.5 W 4 6 2 3 1010.4 1010.3 25.0
27/09:25pm 21.9 25.8 21.1 95 0.5 NW 2 6 1 3 1010.4 1010.3 25.0
27/09:23pm 21.9 25.8 21.1 95 0.5 N 2 6 1 3 1010.4 1010.3 25.0
27/09:01pm 22.0 23.5 20.6 92 0.9 E 13 17 7 9 1010.2 1010.1 22.2
27/09:00pm 22.1 23.7 20.7 92 0.9 E 13 17 7 9 1010.2 1010.1 21.2
27/08:45pm 22.9 24.3 21.0 89 1.2 SSE 15 33 8 18 1010.1 1010.0 9.8
27/08:30pm 23.9 26.5 21.2 85 1.8 ESE 9 11 5 6 1009.6 1009.5 8.4
27/08:00pm 23.6 27.5 21.1 86 1.6 SSE 2 6 1 3 1009.3 1009.1 8.4
27/07:30pm 24.1 27.0 20.6 81 2.3 S 6 7 3 4 1008.9 1008.7 8.4
27/07:00pm 24.8 27.5 20.3 76 2.9 SSE 6 7 3 4 1008.6 1008.4 8.4
27/06:30pm 25.3 27.4 20.1 73 3.4 ESE 9 13 5 7 1008.1 1007.9 8.4
27/06:00pm 25.3 27.9 21.2 78 2.7 SE 9 15 5 8 1008.0 1007.8 8.4
27/05:30pm 24.7 27.9 21.6 83 2.1 SSE 7 13 4 7 1007.8 1007.6 8.4
27/05:00pm 23.6 26.7 21.5 88 1.4 SE 7 11 4 6 1007.4 1007.2 8.4
27/04:30pm 22.7 25.7 21.2 91 1.0 S 7 11 4 6 1007.2 1007.0 8.4
27/04:00pm 22.8 25.4 20.5 87 1.5 NNE 7 11 4 6 1007.5 1007.3 8.4
27/03:55pm 22.6 24.9 19.9 85 1.7 ENE 7 11 4 6 1007.5 1007.3 8.4
27/03:30pm 21.2 19.4 18.8 86 1.5 SE 26 37 14 20 1007.7 1007.5 4.4
27/03:26pm 22.0 19.8 17.8 77 2.6 SE 26 41 14 22 1007.5 1007.3 0.6
27/03:19pm 25.4 23.8 19.3 69 3.9 SE 26 41 14 22 1007.2 1007.0 0.0
27/03:00pm 30.5 32.8 19.8 52 7.0 NE 7 13 4 7 1006.7 1006.5 0.0
27/02:30pm 29.5 31.2 18.6 52 7.0 NNW 7 13 4 7 1007.1 1006.9 0.0
27/02:00pm 29.4 30.7 19.4 55 6.5 NNW 11 15 6 8 1007.4 1007.2 0.0
27/01:30pm 28.7 29.6 19.3 56 6.1 N 13 20 7 11 1007.7 1007.5 0.0
27/01:00pm 28.5 29.3 19.1 56 6.1 N 13 20 7 11 1008.1 1007.9 0.0
27/12:30pm 27.9 29.1 19.1 58 5.7 NNW 11 20 6 11 1008.7 1008.5 0.0
27/12:00pm 27.7 28.9 20.0 63 5.0 NNE 13 19 7 10 1009.1 1008.9 0.0
27/11:30am 27.2 28.2 20.3 66 4.5 NNE 15 22 8 12 1009.3 1009.1 0.0
27/11:00am 26.9 28.1 19.8 65 4.6 N 13 17 7 9 1009.5 1009.4 0.0
27/10:30am 26.3 28.3 19.9 68 4.2 N 9 17 5 9 1009.5 1009.4 0.0
27/10:00am 24.6 27.3 19.4 73 3.3 NNE 4 11 2 6 1009.6 1009.5 0.0
27/09:30am 24.7 27.7 20.0 75 3.0 SSE 4 7 2 4 1009.3 1009.1 0.0
27/09:00am 23.7 26.0 19.8 79 2.5 SSE 7 11 4 6 1009.0 1008.8 2.0
27/08:30am 22.0 24.8 20.5 91 1.0 S 6 9 3 5 1008.8 1008.6 2.0
27/08:00am 21.0 23.6 20.5 97 0.3 S 7 9 4 5 1008.5 1008.3 2.0
27/07:30am 20.6 23.4 20.4 99 0.1 SSW 6 9 3 5 1008.4 1008.2 2.0
27/07:00am 20.4 22.5 20.2 99 0.1 S 9 11 5 6 1007.8 1007.6 2.0
27/06:30am 20.5 24.2 20.0 97 0.3 CALM 0 6 0 3 1007.6 1007.4 2.0
27/06:00am 20.7 22.9 20.4 98 0.2 ESE 9 13 5 7 1007.2 1007.0 2.0
27/05:30am 20.7 22.8 20.2 97 0.3 ENE 9 11 5 6 1007.3 1007.1 2.0
27/05:00am 20.8 24.7 20.3 97 0.3 CALM 0 0 0 0 1007.9 1007.7 2.0
27/04:39am 20.9 24.9 20.6 98 0.2 CALM 0 4 0 2 1008.0 1007.8 2.0
27/04:30am 20.9 24.5 20.6 98 0.2 SW 2 6 1 3 1008.0 1007.8 2.0
27/04:17am 20.8 24.4 20.5 98 0.2 SW 2 7 1 4 1007.9 1007.7 2.0
27/04:00am 20.8 24.0 20.5 98 0.2 NW 4 9 2 5 1007.7 1007.5 2.0
27/03:30am 20.9 24.8 20.4 97 0.3 CALM 0 6 0 3 1007.6 1007.4 2.0
27/03:00am 21.1 23.4 20.6 97 0.3 ENE 9 11 5 6 1007.6 1007.4 2.0
27/02:30am 21.4 25.1 20.7 96 0.5 E 2 7 1 4 1008.4 1008.2 1.6
27/02:00am 21.3 24.9 20.5 95 0.5 WSW 2 6 1 3 1009.0 1008.8 1.4
27/01:30am 21.4 23.8 20.9 97 0.3 SSW 9 15 5 8 1009.6 1009.5 1.4
27/01:00am 21.3 23.4 21.0 98 0.2 S 11 13 6 7 1009.2 1009.0 1.4
27/12:30am 21.3 24.3 20.8 97 0.3 SSW 6 7 3 4 1009.3 1009.1 1.4
27/12:00am 21.5 25.6 20.7 95 0.5 CALM 0 0 0 0 1009.1 1008.9 1.4
 
Date/Time
EDT
Temp
°C
App
Temp
°C
Dew
Point
Rel
Hum
%
Delta-T
°C
Wind Press
QNH
hPa
Press
MSL
hPa
Rain
since 9 am
mm
Dir
 
Spd
km/h
Gust
km/h
Spd
kts
Gust
kts
26/11:30pm 21.8 25.4 21.3 97 0.3 SW 4 9 2 5 1009.8 1009.7 1.4
26/11:00pm 21.6 24.6 20.9 96 0.5 SW 6 7 3 4 1009.6 1009.5 1.4
26/10:30pm 21.6 25.5 20.4 93 0.8 CALM 0 0 0 0 1009.4 1009.2 1.4
26/10:00pm 21.9 24.9 20.9 94 0.7 SW 6 7 3 4 1009.7 1009.6 1.4
26/09:30pm 22.0 25.0 21.3 96 0.5 SSW 7 9 4 5 1009.6 1009.5 1.4
26/09:00pm 21.8 25.8 20.6 93 0.8 CALM 0 0 0 0 1009.1 1008.9 1.4
26/08:30pm 22.1 25.0 21.1 94 0.7 S 7 9 4 5 1008.9 1008.7 1.4
26/08:00pm 22.3 26.5 20.9 92 0.9 CALM 0 0 0 0 1008.5 1008.3 1.4
26/07:30pm 22.5 26.5 20.6 89 1.2 CALM 0 7 0 4 1008.3 1008.1 1.4
26/07:00pm 22.9 26.8 21.2 90 1.1 E 2 9 1 5 1007.9 1007.7 1.4
26/06:30pm 23.1 26.6 20.4 85 1.8 NE 2 6 1 3 1008.1 1007.9 1.4
26/06:00pm 23.1 25.8 20.6 86 1.6 NE 7 11 4 6 1007.4 1007.2 1.4
26/05:30pm 23.1 25.9 20.8 87 1.5 ESE 7 9 4 5 1007.6 1007.4 1.2
26/05:00pm 23.1 26.3 20.4 85 1.8 E 4 9 2 5 1008.2 1008.0 1.2
26/04:30pm 23.8 25.9 20.1 80 2.4 E 9 11 5 6 1007.9 1007.7 0.8
26/04:00pm 25.2 26.9 20.2 74 3.3 E 11 13 6 7 1007.8 1007.6 0.0
26/03:30pm 26.5 28.1 19.9 67 4.3 ENE 11 17 6 9 1007.9 1007.7 0.0
26/03:00pm 27.2 28.3 17.9 56 5.9 NNW 9 13 5 7 1007.8 1007.6 0.0
26/02:30pm 27.8 28.9 17.9 54 6.3 N 9 15 5 8 1008.1 1007.9 0.0
26/02:00pm 28.7 29.5 19.1 56 6.2 N 13 20 7 11 1008.4 1008.2 0.0
26/01:30pm 27.6 29.0 18.6 58 5.8 N 9 17 5 9 1008.7 1008.5 0.0
26/01:00pm 28.0 29.2 19.0 58 5.8 N 11 17 6 9 1009.1 1008.9 0.0
26/12:30pm 27.9 28.7 17.4 52 6.6 NNE 9 15 5 8 1009.6 1009.5 0.0
26/12:00pm 27.5 28.5 17.7 55 6.2 NNW 9 13 5 7 1009.8 1009.7 0.0
26/11:30am 26.8 28.7 19.7 65 4.6 NNE 9 19 5 10 1009.9 1009.8 0.0
26/11:00am 26.5 28.4 18.6 62 5.0 NE 6 11 3 6 1010.4 1010.3 0.0
26/10:30am 26.3 28.8 19.9 68 4.2 NE 6 11 3 6 1010.4 1010.3 0.0
26/10:00am 25.1 28.1 20.1 74 3.3 N 4 11 2 6 1010.6 1010.5 0.0
26/09:30am 23.4 26.3 19.8 80 2.3 NW 4 7 2 4 1010.5 1010.4 0.0
26/09:00am 22.3 25.7 20.2 88 1.4 SW 2 6 1 3 1010.7 1010.6 0.0
26/08:30am 21.4 23.6 19.7 90 1.1 SW 7 9 4 5 1010.4 1010.3 0.0
26/08:00am 20.4 22.8 19.6 95 0.5 SSW 6 7 3 4 1010.4 1010.3 0.0
26/07:30am 19.6 23.0 19.3 98 0.2 CALM 0 0 0 0 1010.5 1010.4 0.0
26/07:10am 19.2 22.4 18.9 98 0.2 CALM 0 0 0 0 1010.4 1010.3 0.0
26/07:00am 19.0 22.1 18.7 98 0.2 CALM 0 0 0 0 1010.5 1010.4 0.0
26/06:44am 18.9 22.0 18.6 98 0.2 CALM 0 0 0 0 1010.4 1010.3 0.0
26/06:41am 18.9 22.0 18.6 98 0.2 CALM 0 0 0 0 1010.4 1010.3 0.0
26/06:40am 18.9 22.0 18.6 98 0.2 CALM 0 0 0 0 1010.4 1010.3 0.0
26/06:30am 19.0 22.1 18.7 98 0.2 CALM 0 0 0 0 1010.3 1010.2 0.0
26/06:07am 19.1 22.3 18.8 98 0.2 CALM 0 0 0 0 1010.0 1009.9 0.0
26/06:00am 19.1 22.3 18.8 98 0.2 CALM 0 0 0 0 1010.1 1010.0 0.0
26/05:39am 19.2 21.6 18.7 97 0.3 WNW 4 6 2 3 1010.0 1009.9 0.0
26/05:30am 19.4 22.6 18.9 97 0.3 CALM 0 0 0 0 1009.9 1009.8 0.0
26/05:00am 19.7 22.0 19.5 99 0.1 SSE 6 7 3 4 1009.8 1009.7 0.0
26/04:30am 19.7 23.1 19.4 98 0.2 CALM 0 0 0 0 1009.8 1009.7 0.0
26/04:00am 19.6 22.2 19.3 98 0.2 WSW 4 7 2 4 1010.0 1009.9 0.0
26/03:30am 19.7 23.0 19.2 97 0.3 CALM 0 0 0 0 1010.3 1010.2 0.0
26/03:00am 20.1 23.3 19.8 98 0.2 NW 2 6 1 3 1010.5 1010.4 0.0
26/02:30am 20.0 23.5 19.5 97 0.3 CALM 0 0 0 0 1010.9 1010.8 0.0
26/02:00am 20.2 23.9 19.9 98 0.2 CALM 0 0 0 0 1011.2 1011.1 0.0
26/01:30am 20.2 22.7 19.9 98 0.2 SSW 6 7 3 4 1011.4 1011.3 0.0
26/01:01am 20.0 22.4 19.7 98 0.2 SSW 6 9 3 5 1011.8 1011.7 0.0
26/01:00am 20.0 22.4 19.7 98 0.2 SSW 6 7 3 4 1011.8 1011.7 0.0
26/12:42am 20.0 23.5 19.5 97 0.3 CALM 0 0 0 0 1011.9 1011.8 0.0
26/12:30am 20.0 23.4 19.3 96 0.4 CALM 0 0 0 0 1012.1 1012.0 0.0
26/12:00am 20.2 23.6 19.4 95 0.5 CALM 0 0 0 0 1012.3 1012.2 0.0
 
Date/Time
EDT
Temp
°C
App
Temp
°C
Dew
Point
Rel
Hum
%
Delta-T
°C
Wind Press
QNH
hPa
Press
MSL
hPa
Rain
since 9 am
mm
Dir
 
Spd
km/h
Gust
km/h
Spd
kts
Gust
kts
25/11:30pm 20.4 22.7 19.4 94 0.6 SSW 6 7 3 4 1012.5 1012.4 0.0
25/11:00pm 20.8 23.1 19.8 94 0.6 SSE 7 9 4 5 1012.6 1012.5 0.0
25/10:30pm 20.9 24.4 19.6 92 0.8 CALM 0 7 0 4 1013.0 1012.9 0.0
25/10:00pm 21.3 23.7 20.1 93 0.8 SSW 7 7 4 4 1013.2 1013.1 0.0
25/09:30pm 21.2 24.3 19.5 90 1.1 SW 2 7 1 4 1013.1 1013.0 0.0
25/09:00pm 21.7 25.1 19.4 87 1.5 CALM 0 0 0 0 1012.5 1012.4 0.0
25/08:30pm 22.4 24.7 19.4 83 1.9 SE 6 9 3 5 1012.5 1012.4 0.0
25/08:00pm 22.7 24.9 19.1 80 2.3 SSE 6 7 3 4 1012.3 1012.2 0.0
25/07:30pm 23.5 25.5 19.2 77 2.7 SSE 7 11 4 6 1012.2 1012.1 0.0
25/07:00pm 24.0 25.6 19.1 74 3.1 SE 9 13 5 7 1011.6 1011.5 0.0
25/06:30pm 25.4 25.1 19.1 68 4.0 E 19 28 10 15 1011.4 1011.3 0.0
25/06:00pm 25.3 25.8 19.2 69 3.9 SE 15 24 8 13 1011.3 1011.2 0.0
25/05:30pm 26.4 26.8 19.8 67 4.3 SE 17 24 9 13 1011.2 1011.1 0.0
25/05:00pm 26.7 27.5 19.1 63 4.9 SE 13 20 7 11 1011.2 1011.1 0.0
25/04:30pm 27.4 27.7 19.5 62 5.1 SSE 17 26 9 14 1011.1 1011.0 0.0
25/04:00pm 27.8 28.1 19.6 61 5.3 ESE 17 28 9 15 1011.0 1010.9 0.0
25/03:30pm 27.7 27.7 19.8 62 5.2 SE 19 32 10 17 1011.3 1011.2 0.0
25/03:00pm 27.7 29.2 20.5 65 4.7 ESE 13 22 7 12 1011.6 1011.5 0.0
25/02:30pm 27.3 27.4 19.1 61 5.3 ESE 17 24 9 13 1012.2 1012.1 0.0
25/02:00pm 27.2 27.0 18.5 59 5.6 SE 17 26 9 14 1012.4 1012.3 0.0
25/01:30pm 27.7 28.2 20.0 63 5.0 SE 17 22 9 12 1012.7 1012.6 0.0
25/01:00pm 26.6 27.7 19.7 66 4.5 SE 13 20 7 11 1012.9 1012.8 0.0
25/12:30pm 27.0 29.0 19.1 62 5.1 SSE 7 11 4 6 1013.1 1013.0 0.0
25/12:00pm 26.2 27.5 19.3 65 4.4 SE 11 19 6 10 1013.4 1013.3 0.0
25/11:30am 26.2 27.3 19.6 67 4.3 SSE 13 20 7 11 1013.7 1013.6 0.0
25/11:00am 26.3 26.8 19.2 65 4.6 S 15 20 8 11 1013.8 1013.7 0.0
25/10:30am 24.9 26.7 20.4 76 2.9 SSE 11 15 6 8 1013.9 1013.8 0.0
25/10:00am 23.6 26.1 20.3 82 2.1 SW 7 9 4 5 1014.0 1013.9 0.0
25/09:30am 22.7 25.3 20.4 87 1.5 E 7 13 4 7 1014.0 1013.9 0.0
25/09:00am 21.7 25.5 20.2 91 1.0 CALM 0 6 0 3 1014.0 1013.9 2.0
25/08:30am 20.9 23.2 19.9 94 0.6 S 7 9 4 5 1013.8 1013.7 2.0
25/08:00am 20.7 23.2 20.2 97 0.3 SSW 7 11 4 6 1013.5 1013.4 2.0
25/07:30am 19.7 21.9 19.5 99 0.1 SSW 7 11 4 6 1013.3 1013.2 2.0
25/07:00am 19.4 22.7 19.2 99 0.1 CALM 0 0 0 0 1013.2 1013.1 2.0
25/06:30am 19.3 22.6 19.0 98 0.2 CALM 0 0 0 0 1012.6 1012.5 2.0
25/06:06am 19.4 21.9 19.1 98 0.2 SW 4 7 2 4 1012.2 1012.1 2.0
25/06:00am 19.5 21.7 19.2 98 0.2 SW 6 7 3 4 1012.3 1012.2 2.0
25/05:49am 19.5 21.7 19.2 98 0.2 SW 6 7 3 4 1012.2 1012.1 2.0
25/05:30am 19.7 21.9 19.5 99 0.1 SSW 7 9 4 5 1012.2 1012.1 2.0
25/05:05am 19.8 22.0 19.6 99 0.1 SW 7 11 4 6 1012.1 1012.0 2.0
25/05:00am 19.7 21.8 19.4 98 0.2 SW 7 9 4 5 1012.0 1011.9 2.0
25/04:39am 19.7 21.9 19.2 97 0.3 SW 6 7 3 4 1012.0 1011.9 2.0
25/04:30am 19.8 22.8 19.3 97 0.3 SSW 2 7 1 4 1011.9 1011.8 2.0
25/04:00am 20.1 22.8 19.4 96 0.4 SW 4 7 2 4 1012.0 1011.9 1.8
25/03:30am 20.5 22.8 19.8 96 0.4 SSW 7 11 4 6 1012.1 1012.0 1.8
25/03:00am 20.7 22.8 20.2 97 0.3 SSW 9 11 5 6 1012.5 1012.4 1.8
25/02:30am 20.7 22.8 20.2 97 0.3 SW 9 11 5 6 1012.8 1012.7 1.8
25/02:00am 20.8 23.4 20.5 98 0.2 SSW 7 11 4 6 1013.1 1013.0 1.8
25/01:42am 20.7 22.4 20.2 97 0.3 SSW 11 15 6 8 1013.4 1013.3 1.6
25/01:30am 20.8 23.0 20.3 97 0.3 SW 9 13 5 7 1013.4 1013.3 1.6
25/01:06am 20.9 23.0 20.2 96 0.4 SW 9 15 5 8 1013.7 1013.6 1.0
25/01:00am 20.8 23.2 20.1 96 0.4 SW 7 11 4 6 1013.8 1013.7 1.0
25/12:30am 20.8 24.3 19.6 93 0.8 CALM 0 4 0 2 1013.8 1013.7 1.0
25/12:00am 21.2 23.3 20.2 94 0.6 SSW 9 11 5 6 1013.9 1013.8 1.0

Other Formats:

Comma delimited format used in spreadsheet applications
http://www.bom.gov.au/fwo/IDN60801/IDN60801.95570.axf

JavaScript Object Notation format (JSON) in row-major order
http://www.bom.gov.au/fwo/IDN60801/IDN60801.95570.json